sensor_id;sensor_type;location;lat;lon;timestamp;P1;durP1;ratioP1;P2;durP2;ratioP2
53907;SDS011;40469;47.998;7.794;2023-12-14T00:00:04;2.95;;;2.10;;
53907;SDS011;40469;47.998;7.794;2023-12-14T00:02:30;4.43;;;2.33;;
53907;SDS011;40469;47.998;7.794;2023-12-14T00:04:55;3.15;;;1.85;;
53907;SDS011;40469;47.998;7.794;2023-12-14T00:07:21;5.55;;;2.17;;
53907;SDS011;40469;47.998;7.794;2023-12-14T00:09:46;7.88;;;4.45;;
53907;SDS011;40469;47.998;7.794;2023-12-14T00:12:11;4.45;;;2.47;;
53907;SDS011;40469;47.998;7.794;2023-12-14T00:14:37;2.95;;;2.03;;
53907;SDS011;40469;47.998;7.794;2023-12-14T00:17:02;3.85;;;2.20;;
53907;SDS011;40469;47.998;7.794;2023-12-14T00:19:28;3.55;;;2.00;;
53907;SDS011;40469;47.998;7.794;2023-12-14T00:21:53;3.20;;;1.80;;
53907;SDS011;40469;47.998;7.794;2023-12-14T00:24:18;2.03;;;1.70;;
53907;SDS011;40469;47.998;7.794;2023-12-14T00:26:44;3.42;;;1.90;;
53907;SDS011;40469;47.998;7.794;2023-12-14T00:29:09;8.18;;;2.15;;
53907;SDS011;40469;47.998;7.794;2023-12-14T00:31:34;3.03;;;1.88;;
53907;SDS011;40469;47.998;7.794;2023-12-14T00:34:00;3.15;;;2.15;;
53907;SDS011;40469;47.998;7.794;2023-12-14T00:36:25;3.67;;;1.92;;
53907;SDS011;40469;47.998;7.794;2023-12-14T00:38:50;2.70;;;1.67;;
53907;SDS011;40469;47.998;7.794;2023-12-14T00:41:16;6.20;;;2.08;;
53907;SDS011;40469;47.998;7.794;2023-12-14T00:43:41;3.50;;;2.00;;
53907;SDS011;40469;47.998;7.794;2023-12-14T00:46:07;2.40;;;1.58;;
53907;SDS011;40469;47.998;7.794;2023-12-14T00:48:33;4.90;;;2.10;;
53907;SDS011;40469;47.998;7.794;2023-12-14T00:50:58;3.78;;;2.05;;
53907;SDS011;40469;47.998;7.794;2023-12-14T00:53:23;3.42;;;1.60;;
53907;SDS011;40469;47.998;7.794;2023-12-14T00:55:49;3.55;;;1.63;;
53907;SDS011;40469;47.998;7.794;2023-12-14T00:58:14;3.40;;;1.65;;
53907;SDS011;40469;47.998;7.794;2023-12-14T01:00:39;2.65;;;1.70;;
53907;SDS011;40469;47.998;7.794;2023-12-14T01:03:04;5.25;;;1.83;;
53907;SDS011;40469;47.998;7.794;2023-12-14T01:05:30;3.35;;;1.38;;
53907;SDS011;40469;47.998;7.794;2023-12-14T01:07:55;3.83;;;1.67;;
53907;SDS011;40469;47.998;7.794;2023-12-14T01:10:20;3.20;;;1.73;;
53907;SDS011;40469;47.998;7.794;2023-12-14T01:12:46;2.92;;;1.80;;
53907;SDS011;40469;47.998;7.794;2023-12-14T01:15:11;3.35;;;2.00;;
53907;SDS011;40469;47.998;7.794;2023-12-14T01:17:37;4.15;;;2.10;;
53907;SDS011;40469;47.998;7.794;2023-12-14T01:20:05;4.15;;;2.17;;
53907;SDS011;40469;47.998;7.794;2023-12-14T01:22:32;6.75;;;1.63;;
53907;SDS011;40469;47.998;7.794;2023-12-14T01:24:58;2.03;;;1.60;;
53907;SDS011;40469;47.998;7.794;2023-12-14T01:27:23;3.90;;;1.98;;
53907;SDS011;40469;47.998;7.794;2023-12-14T01:29:48;4.80;;;2.25;;
53907;SDS011;40469;47.998;7.794;2023-12-14T01:32:14;2.55;;;1.90;;
53907;SDS011;40469;47.998;7.794;2023-12-14T01:34:39;4.53;;;1.85;;
53907;SDS011;40469;47.998;7.794;2023-12-14T01:37:04;3.67;;;1.80;;
53907;SDS011;40469;47.998;7.794;2023-12-14T01:39:30;3.28;;;2.08;;
53907;SDS011;40469;47.998;7.794;2023-12-14T01:41:55;3.70;;;1.92;;
53907;SDS011;40469;47.998;7.794;2023-12-14T01:44:20;3.80;;;2.00;;
53907;SDS011;40469;47.998;7.794;2023-12-14T01:46:46;2.25;;;1.77;;
53907;SDS011;40469;47.998;7.794;2023-12-14T01:49:11;2.92;;;1.67;;
53907;SDS011;40469;47.998;7.794;2023-12-14T01:51:36;3.20;;;2.00;;
53907;SDS011;40469;47.998;7.794;2023-12-14T01:54:02;4.88;;;2.33;;
53907;SDS011;40469;47.998;7.794;2023-12-14T01:56:30;4.07;;;2.00;;
53907;SDS011;40469;47.998;7.794;2023-12-14T01:58:55;3.53;;;2.28;;
53907;SDS011;40469;47.998;7.794;2023-12-14T02:01:23;5.03;;;1.98;;
53907;SDS011;40469;47.998;7.794;2023-12-14T02:03:55;4.27;;;2.17;;
53907;SDS011;40469;47.998;7.794;2023-12-14T02:06:21;4.25;;;2.35;;
53907;SDS011;40469;47.998;7.794;2023-12-14T02:08:46;4.90;;;2.15;;
53907;SDS011;40469;47.998;7.794;2023-12-14T02:11:11;4.30;;;2.20;;
53907;SDS011;40469;47.998;7.794;2023-12-14T02:13:37;2.95;;;2.20;;
53907;SDS011;40469;47.998;7.794;2023-12-14T02:16:02;4.75;;;2.00;;
53907;SDS011;40469;47.998;7.794;2023-12-14T02:18:28;2.85;;;1.88;;
53907;SDS011;40469;47.998;7.794;2023-12-14T02:20:53;3.83;;;2.45;;
53907;SDS011;40469;47.998;7.794;2023-12-14T02:23:19;6.45;;;2.20;;
53907;SDS011;40469;47.998;7.794;2023-12-14T02:25:44;5.35;;;2.50;;
53907;SDS011;40469;47.998;7.794;2023-12-14T02:28:09;4.30;;;2.30;;
53907;SDS011;40469;47.998;7.794;2023-12-14T02:30:35;5.40;;;2.60;;
53907;SDS011;40469;47.998;7.794;2023-12-14T02:33:00;8.00;;;2.88;;
53907;SDS011;40469;47.998;7.794;2023-12-14T02:35:26;5.75;;;2.40;;
53907;SDS011;40469;47.998;7.794;2023-12-14T02:37:51;3.58;;;2.20;;
53907;SDS011;40469;47.998;7.794;2023-12-14T02:40:16;6.28;;;2.72;;
53907;SDS011;40469;47.998;7.794;2023-12-14T02:42:42;4.95;;;2.13;;
53907;SDS011;40469;47.998;7.794;2023-12-14T02:45:07;5.30;;;2.22;;
53907;SDS011;40469;47.998;7.794;2023-12-14T02:47:33;4.28;;;2.25;;
53907;SDS011;40469;47.998;7.794;2023-12-14T02:49:59;4.20;;;2.17;;
53907;SDS011;40469;47.998;7.794;2023-12-14T02:52:24;4.75;;;2.20;;
53907;SDS011;40469;47.998;7.794;2023-12-14T02:54:49;7.05;;;2.70;;
53907;SDS011;40469;47.998;7.794;2023-12-14T02:57:15;5.97;;;2.55;;
53907;SDS011;40469;47.998;7.794;2023-12-14T02:59:40;6.25;;;3.45;;
53907;SDS011;40469;47.998;7.794;2023-12-14T03:02:06;9.35;;;2.63;;
53907;SDS011;40469;47.998;7.794;2023-12-14T03:04:31;4.85;;;3.08;;
53907;SDS011;40469;47.998;7.794;2023-12-14T03:06:57;4.72;;;2.53;;
53907;SDS011;40469;47.998;7.794;2023-12-14T03:09:27;5.53;;;2.60;;
53907;SDS011;40469;47.998;7.794;2023-12-14T03:11:52;6.43;;;2.92;;
53907;SDS011;40469;47.998;7.794;2023-12-14T03:14:18;5.45;;;2.72;;
53907;SDS011;40469;47.998;7.794;2023-12-14T03:16:43;6.60;;;3.80;;
53907;SDS011;40469;47.998;7.794;2023-12-14T03:19:08;6.85;;;3.40;;
53907;SDS011;40469;47.998;7.794;2023-12-14T03:21:34;8.82;;;3.80;;
53907;SDS011;40469;47.998;7.794;2023-12-14T03:23:59;7.95;;;3.65;;
53907;SDS011;40469;47.998;7.794;2023-12-14T03:26:24;5.72;;;3.13;;
53907;SDS011;40469;47.998;7.794;2023-12-14T03:28:50;7.25;;;3.40;;
53907;SDS011;40469;47.998;7.794;2023-12-14T03:31:15;6.97;;;3.67;;
53907;SDS011;40469;47.998;7.794;2023-12-14T03:33:41;7.32;;;4.25;;
53907;SDS011;40469;47.998;7.794;2023-12-14T03:36:07;6.18;;;3.60;;
53907;SDS011;40469;47.998;7.794;2023-12-14T03:38:33;6.35;;;3.75;;
53907;SDS011;40469;47.998;7.794;2023-12-14T03:40:58;6.80;;;4.18;;
53907;SDS011;40469;47.998;7.794;2023-12-14T03:43:23;7.28;;;3.70;;
53907;SDS011;40469;47.998;7.794;2023-12-14T03:45:49;7.68;;;3.38;;
53907;SDS011;40469;47.998;7.794;2023-12-14T03:48:14;6.10;;;3.20;;
53907;SDS011;40469;47.998;7.794;2023-12-14T03:50:40;6.72;;;3.35;;
53907;SDS011;40469;47.998;7.794;2023-12-14T03:53:05;5.30;;;2.90;;
53907;SDS011;40469;47.998;7.794;2023-12-14T03:55:31;5.32;;;3.20;;
53907;SDS011;40469;47.998;7.794;2023-12-14T03:57:57;5.10;;;2.67;;
53907;SDS011;40469;47.998;7.794;2023-12-14T04:00:22;5.70;;;2.70;;
53907;SDS011;40469;47.998;7.794;2023-12-14T04:02:48;4.53;;;2.67;;
53907;SDS011;40469;47.998;7.794;2023-12-14T04:05:13;4.30;;;2.58;;
53907;SDS011;40469;47.998;7.794;2023-12-14T04:07:39;3.80;;;2.60;;
53907;SDS011;40469;47.998;7.794;2023-12-14T04:10:09;3.90;;;2.60;;
53907;SDS011;40469;47.998;7.794;2023-12-14T04:12:35;3.95;;;2.25;;
53907;SDS011;40469;47.998;7.794;2023-12-14T04:15:01;6.80;;;2.40;;
53907;SDS011;40469;47.998;7.794;2023-12-14T04:17:27;3.88;;;2.50;;
53907;SDS011;40469;47.998;7.794;2023-12-14T04:19:53;5.30;;;3.00;;
53907;SDS011;40469;47.998;7.794;2023-12-14T04:22:18;4.50;;;2.63;;
53907;SDS011;40469;47.998;7.794;2023-12-14T04:24:44;3.00;;;1.98;;
53907;SDS011;40469;47.998;7.794;2023-12-14T04:27:09;3.47;;;2.00;;
53907;SDS011;40469;47.998;7.794;2023-12-14T04:29:34;5.55;;;2.40;;
53907;SDS011;40469;47.998;7.794;2023-12-14T04:32:00;5.53;;;2.55;;
53907;SDS011;40469;47.998;7.794;2023-12-14T04:34:25;3.60;;;2.42;;
53907;SDS011;40469;47.998;7.794;2023-12-14T04:36:50;3.85;;;2.50;;
53907;SDS011;40469;47.998;7.794;2023-12-14T04:39:17;3.08;;;2.00;;
53907;SDS011;40469;47.998;7.794;2023-12-14T04:41:43;4.88;;;2.92;;
53907;SDS011;40469;47.998;7.794;2023-12-14T04:44:09;3.97;;;2.60;;
53907;SDS011;40469;47.998;7.794;2023-12-14T04:46:35;3.33;;;2.20;;
53907;SDS011;40469;47.998;7.794;2023-12-14T04:49:01;4.32;;;2.25;;
53907;SDS011;40469;47.998;7.794;2023-12-14T04:51:26;3.20;;;1.90;;
53907;SDS011;40469;47.998;7.794;2023-12-14T04:53:52;3.65;;;1.83;;
53907;SDS011;40469;47.998;7.794;2023-12-14T04:56:17;2.70;;;1.70;;
53907;SDS011;40469;47.998;7.794;2023-12-14T04:58:42;2.95;;;1.75;;
53907;SDS011;40469;47.998;7.794;2023-12-14T05:01:08;2.17;;;1.45;;
53907;SDS011;40469;47.998;7.794;2023-12-14T05:03:34;2.38;;;1.67;;
53907;SDS011;40469;47.998;7.794;2023-12-14T05:06:00;1.83;;;1.30;;
53907;SDS011;40469;47.998;7.794;2023-12-14T05:08:25;2.25;;;1.35;;
53907;SDS011;40469;47.998;7.794;2023-12-14T05:10:51;2.05;;;1.38;;
53907;SDS011;40469;47.998;7.794;2023-12-14T05:13:16;5.57;;;1.80;;
53907;SDS011;40469;47.998;7.794;2023-12-14T05:15:42;4.28;;;1.80;;
53907;SDS011;40469;47.998;7.794;2023-12-14T05:18:07;3.70;;;1.80;;
53907;SDS011;40469;47.998;7.794;2023-12-14T05:20:33;3.22;;;1.80;;
53907;SDS011;40469;47.998;7.794;2023-12-14T05:22:59;2.10;;;1.30;;
53907;SDS011;40469;47.998;7.794;2023-12-14T05:25:25;3.67;;;1.30;;
53907;SDS011;40469;47.998;7.794;2023-12-14T05:27:50;1.92;;;1.10;;
53907;SDS011;40469;47.998;7.794;2023-12-14T05:30:16;1.83;;;1.40;;
53907;SDS011;40469;47.998;7.794;2023-12-14T05:32:41;5.00;;;1.65;;
53907;SDS011;40469;47.998;7.794;2023-12-14T05:35:07;5.25;;;2.28;;
53907;SDS011;40469;47.998;7.794;2023-12-14T05:37:32;3.00;;;2.10;;
53907;SDS011;40469;47.998;7.794;2023-12-14T05:39:58;4.63;;;2.00;;
53907;SDS011;40469;47.998;7.794;2023-12-14T05:42:23;4.18;;;2.58;;
53907;SDS011;40469;47.998;7.794;2023-12-14T05:44:48;4.20;;;2.70;;
53907;SDS011;40469;47.998;7.794;2023-12-14T05:47:14;4.82;;;3.05;;
53907;SDS011;40469;47.998;7.794;2023-12-14T05:49:43;5.28;;;2.97;;
53907;SDS011;40469;47.998;7.794;2023-12-14T05:52:09;3.95;;;2.38;;
53907;SDS011;40469;47.998;7.794;2023-12-14T05:54:35;6.38;;;3.10;;
53907;SDS011;40469;47.998;7.794;2023-12-14T05:57:04;4.40;;;2.45;;
53907;SDS011;40469;47.998;7.794;2023-12-14T05:59:30;6.22;;;2.60;;
53907;SDS011;40469;47.998;7.794;2023-12-14T06:01:56;3.90;;;2.55;;
53907;SDS011;40469;47.998;7.794;2023-12-14T06:04:25;6.03;;;2.90;;
53907;SDS011;40469;47.998;7.794;2023-12-14T06:06:52;4.60;;;3.10;;
53907;SDS011;40469;47.998;7.794;2023-12-14T06:09:18;3.72;;;2.22;;
53907;SDS011;40469;47.998;7.794;2023-12-14T06:11:47;5.82;;;2.60;;
53907;SDS011;40469;47.998;7.794;2023-12-14T06:14:12;2.75;;;2.22;;
53907;SDS011;40469;47.998;7.794;2023-12-14T06:16:38;6.47;;;2.17;;
53907;SDS011;40469;47.998;7.794;2023-12-14T06:19:03;6.65;;;2.92;;
53907;SDS011;40469;47.998;7.794;2023-12-14T06:21:29;4.13;;;2.58;;
53907;SDS011;40469;47.998;7.794;2023-12-14T06:23:57;3.25;;;2.42;;
53907;SDS011;40469;47.998;7.794;2023-12-14T06:26:24;3.38;;;2.30;;
53907;SDS011;40469;47.998;7.794;2023-12-14T06:28:49;3.70;;;2.42;;
53907;SDS011;40469;47.998;7.794;2023-12-14T06:31:15;3.78;;;2.30;;
53907;SDS011;40469;47.998;7.794;2023-12-14T06:33:41;6.82;;;2.25;;
53907;SDS011;40469;47.998;7.794;2023-12-14T06:36:07;3.80;;;2.38;;
53907;SDS011;40469;47.998;7.794;2023-12-14T06:38:33;4.30;;;2.33;;
53907;SDS011;40469;47.998;7.794;2023-12-14T06:40:58;4.80;;;3.42;;
53907;SDS011;40469;47.998;7.794;2023-12-14T06:43:24;3.20;;;2.42;;
53907;SDS011;40469;47.998;7.794;2023-12-14T06:45:49;5.15;;;2.95;;
53907;SDS011;40469;47.998;7.794;2023-12-14T06:48:14;4.68;;;2.70;;
53907;SDS011;40469;47.998;7.794;2023-12-14T06:50:40;5.65;;;2.85;;
53907;SDS011;40469;47.998;7.794;2023-12-14T06:53:06;4.72;;;2.85;;
53907;SDS011;40469;47.998;7.794;2023-12-14T06:55:31;5.32;;;3.47;;
53907;SDS011;40469;47.998;7.794;2023-12-14T06:57:56;4.75;;;2.88;;
53907;SDS011;40469;47.998;7.794;2023-12-14T07:00:22;5.03;;;2.92;;
53907;SDS011;40469;47.998;7.794;2023-12-14T07:02:47;4.85;;;2.60;;
53907;SDS011;40469;47.998;7.794;2023-12-14T07:05:12;3.53;;;2.45;;
53907;SDS011;40469;47.998;7.794;2023-12-14T07:07:38;5.90;;;2.67;;
53907;SDS011;40469;47.998;7.794;2023-12-14T07:10:03;4.63;;;2.90;;
53907;SDS011;40469;47.998;7.794;2023-12-14T07:12:29;7.22;;;3.00;;
53907;SDS011;40469;47.998;7.794;2023-12-14T07:14:54;9.55;;;3.42;;
53907;SDS011;40469;47.998;7.794;2023-12-14T07:17:20;5.68;;;2.63;;
53907;SDS011;40469;47.998;7.794;2023-12-14T07:19:45;5.00;;;2.70;;
53907;SDS011;40469;47.998;7.794;2023-12-14T07:22:10;5.05;;;2.50;;
53907;SDS011;40469;47.998;7.794;2023-12-14T07:24:36;6.70;;;3.00;;
53907;SDS011;40469;47.998;7.794;2023-12-14T07:27:01;3.72;;;2.42;;
53907;SDS011;40469;47.998;7.794;2023-12-14T07:29:29;3.75;;;2.38;;
53907;SDS011;40469;47.998;7.794;2023-12-14T07:31:55;5.22;;;3.15;;
53907;SDS011;40469;47.998;7.794;2023-12-14T07:34:20;3.50;;;2.20;;
53907;SDS011;40469;47.998;7.794;2023-12-14T07:36:45;4.03;;;2.30;;
53907;SDS011;40469;47.998;7.794;2023-12-14T07:39:11;3.08;;;2.00;;
53907;SDS011;40469;47.998;7.794;2023-12-14T07:41:37;3.28;;;2.30;;
53907;SDS011;40469;47.998;7.794;2023-12-14T07:44:02;4.25;;;2.75;;
53907;SDS011;40469;47.998;7.794;2023-12-14T07:46:28;4.38;;;2.50;;
53907;SDS011;40469;47.998;7.794;2023-12-14T07:48:53;3.67;;;2.25;;
53907;SDS011;40469;47.998;7.794;2023-12-14T07:51:19;3.72;;;1.75;;
53907;SDS011;40469;47.998;7.794;2023-12-14T07:53:44;3.70;;;2.38;;
53907;SDS011;40469;47.998;7.794;2023-12-14T07:56:11;4.25;;;2.25;;
53907;SDS011;40469;47.998;7.794;2023-12-14T07:58:37;3.67;;;2.00;;
53907;SDS011;40469;47.998;7.794;2023-12-14T08:01:02;3.35;;;2.28;;
53907;SDS011;40469;47.998;7.794;2023-12-14T08:03:27;3.67;;;2.00;;
53907;SDS011;40469;47.998;7.794;2023-12-14T08:05:53;4.32;;;2.28;;
53907;SDS011;40469;47.998;7.794;2023-12-14T08:08:18;4.55;;;2.10;;
53907;SDS011;40469;47.998;7.794;2023-12-14T08:10:43;2.85;;;1.77;;
53907;SDS011;40469;47.998;7.794;2023-12-14T08:13:09;2.83;;;1.73;;
53907;SDS011;40469;47.998;7.794;2023-12-14T08:15:34;2.92;;;1.77;;
53907;SDS011;40469;47.998;7.794;2023-12-14T08:17:59;5.65;;;2.47;;
53907;SDS011;40469;47.998;7.794;2023-12-14T08:20:25;7.03;;;2.70;;
53907;SDS011;40469;47.998;7.794;2023-12-14T08:22:50;4.85;;;2.65;;
53907;SDS011;40469;47.998;7.794;2023-12-14T08:25:15;6.18;;;2.90;;
53907;SDS011;40469;47.998;7.794;2023-12-14T08:27:41;4.60;;;2.35;;
53907;SDS011;40469;47.998;7.794;2023-12-14T08:30:09;7.05;;;3.60;;
53907;SDS011;40469;47.998;7.794;2023-12-14T08:32:35;5.85;;;3.38;;
53907;SDS011;40469;47.998;7.794;2023-12-14T08:35:00;6.97;;;3.40;;
53907;SDS011;40469;47.998;7.794;2023-12-14T08:37:26;6.15;;;2.85;;
53907;SDS011;40469;47.998;7.794;2023-12-14T08:39:51;6.55;;;3.13;;
53907;SDS011;40469;47.998;7.794;2023-12-14T08:42:17;5.75;;;3.67;;
53907;SDS011;40469;47.998;7.794;2023-12-14T08:44:42;7.22;;;3.17;;
53907;SDS011;40469;47.998;7.794;2023-12-14T08:47:07;7.53;;;3.50;;
53907;SDS011;40469;47.998;7.794;2023-12-14T08:49:34;7.25;;;3.97;;
53907;SDS011;40469;47.998;7.794;2023-12-14T08:52:00;8.10;;;3.70;;
53907;SDS011;40469;47.998;7.794;2023-12-14T08:54:25;7.50;;;4.22;;
53907;SDS011;40469;47.998;7.794;2023-12-14T08:56:51;11.77;;;4.93;;
53907;SDS011;40469;47.998;7.794;2023-12-14T08:59:17;9.75;;;4.72;;
53907;SDS011;40469;47.998;7.794;2023-12-14T09:01:44;10.60;;;5.40;;
53907;SDS011;40469;47.998;7.794;2023-12-14T09:04:09;12.75;;;4.93;;
53907;SDS011;40469;47.998;7.794;2023-12-14T09:06:35;13.43;;;5.97;;
53907;SDS011;40469;47.998;7.794;2023-12-14T09:09:00;8.02;;;4.88;;
53907;SDS011;40469;47.998;7.794;2023-12-14T09:11:25;8.40;;;4.95;;
53907;SDS011;40469;47.998;7.794;2023-12-14T09:13:51;8.20;;;4.45;;
53907;SDS011;40469;47.998;7.794;2023-12-14T09:16:16;8.75;;;4.90;;
53907;SDS011;40469;47.998;7.794;2023-12-14T09:18:42;8.95;;;4.80;;
53907;SDS011;40469;47.998;7.794;2023-12-14T09:21:08;13.57;;;4.80;;
53907;SDS011;40469;47.998;7.794;2023-12-14T09:23:33;8.18;;;4.60;;
53907;SDS011;40469;47.998;7.794;2023-12-14T09:25:58;7.47;;;3.90;;
53907;SDS011;40469;47.998;7.794;2023-12-14T09:28:24;7.10;;;3.80;;
53907;SDS011;40469;47.998;7.794;2023-12-14T09:30:50;6.30;;;3.55;;
53907;SDS011;40469;47.998;7.794;2023-12-14T09:33:15;8.38;;;4.28;;
53907;SDS011;40469;47.998;7.794;2023-12-14T09:35:40;9.30;;;4.93;;
53907;SDS011;40469;47.998;7.794;2023-12-14T09:38:07;10.48;;;4.28;;
53907;SDS011;40469;47.998;7.794;2023-12-14T09:40:33;8.73;;;4.03;;
53907;SDS011;40469;47.998;7.794;2023-12-14T09:42:59;9.60;;;3.78;;
53907;SDS011;40469;47.998;7.794;2023-12-14T09:45:27;7.85;;;3.92;;
53907;SDS011;40469;47.998;7.794;2023-12-14T09:47:54;5.53;;;3.22;;
53907;SDS011;40469;47.998;7.794;2023-12-14T09:50:22;7.03;;;3.65;;
53907;SDS011;40469;47.998;7.794;2023-12-14T09:52:48;6.85;;;3.80;;
53907;SDS011;40469;47.998;7.794;2023-12-14T09:55:14;7.28;;;3.60;;
53907;SDS011;40469;47.998;7.794;2023-12-14T09:57:40;5.55;;;3.10;;
53907;SDS011;40469;47.998;7.794;2023-12-14T10:00:06;6.47;;;3.47;;
53907;SDS011;40469;47.998;7.794;2023-12-14T10:02:35;5.13;;;3.05;;
53907;SDS011;40469;47.998;7.794;2023-12-14T10:05:00;5.60;;;3.28;;
53907;SDS011;40469;47.998;7.794;2023-12-14T10:07:26;7.10;;;3.17;;
53907;SDS011;40469;47.998;7.794;2023-12-14T10:09:51;5.07;;;3.00;;
53907;SDS011;40469;47.998;7.794;2023-12-14T10:12:18;5.30;;;2.67;;
53907;SDS011;40469;47.998;7.794;2023-12-14T10:14:43;5.90;;;3.47;;
53907;SDS011;40469;47.998;7.794;2023-12-14T10:17:19;4.53;;;2.85;;
53907;SDS011;40469;47.998;7.794;2023-12-14T10:19:56;4.25;;;3.10;;
53907;SDS011;40469;47.998;7.794;2023-12-14T10:22:21;5.22;;;2.78;;
53907;SDS011;40469;47.998;7.794;2023-12-14T10:24:47;7.07;;;3.42;;
53907;SDS011;40469;47.998;7.794;2023-12-14T10:27:16;5.50;;;2.75;;
53907;SDS011;40469;47.998;7.794;2023-12-14T10:29:41;5.45;;;3.53;;
53907;SDS011;40469;47.998;7.794;2023-12-14T10:32:09;5.35;;;3.67;;
53907;SDS011;40469;47.998;7.794;2023-12-14T10:34:36;4.88;;;2.95;;
53907;SDS011;40469;47.998;7.794;2023-12-14T10:37:03;4.40;;;3.13;;
53907;SDS011;40469;47.998;7.794;2023-12-14T10:39:31;5.45;;;2.95;;
53907;SDS011;40469;47.998;7.794;2023-12-14T10:41:58;5.28;;;2.83;;
53907;SDS011;40469;47.998;7.794;2023-12-14T10:44:27;4.47;;;2.80;;
53907;SDS011;40469;47.998;7.794;2023-12-14T10:46:57;6.57;;;3.53;;
53907;SDS011;40469;47.998;7.794;2023-12-14T10:49:23;6.75;;;3.15;;
53907;SDS011;40469;47.998;7.794;2023-12-14T10:51:54;4.65;;;3.13;;
53907;SDS011;40469;47.998;7.794;2023-12-14T10:54:22;5.32;;;3.20;;
53907;SDS011;40469;47.998;7.794;2023-12-14T10:56:49;5.18;;;2.70;;
53907;SDS011;40469;47.998;7.794;2023-12-14T10:59:19;5.68;;;3.03;;
53907;SDS011;40469;47.998;7.794;2023-12-14T11:01:44;4.13;;;2.80;;
53907;SDS011;40469;47.998;7.794;2023-12-14T11:04:10;5.45;;;2.90;;
53907;SDS011;40469;47.998;7.794;2023-12-14T11:06:39;5.10;;;2.97;;
53907;SDS011;40469;47.998;7.794;2023-12-14T11:09:05;5.13;;;2.80;;
53907;SDS011;40469;47.998;7.794;2023-12-14T11:11:54;6.60;;;3.33;;
53907;SDS011;40469;47.998;7.794;2023-12-14T11:14:22;5.63;;;2.88;;
53907;SDS011;40469;47.998;7.794;2023-12-14T11:16:50;4.90;;;2.80;;
53907;SDS011;40469;47.998;7.794;2023-12-14T11:24:18;5.60;;;3.30;;
53907;SDS011;40469;47.998;7.794;2023-12-14T11:26:43;5.13;;;3.15;;
53907;SDS011;40469;47.998;7.794;2023-12-14T11:29:09;3.67;;;2.38;;
53907;SDS011;40469;47.998;7.794;2023-12-14T11:31:34;6.25;;;3.17;;
53907;SDS011;40469;47.998;7.794;2023-12-14T11:34:00;7.45;;;3.13;;
53907;SDS011;40469;47.998;7.794;2023-12-14T11:36:28;4.70;;;2.97;;
53907;SDS011;40469;47.998;7.794;2023-12-14T11:38:54;6.05;;;2.72;;
53907;SDS011;40469;47.998;7.794;2023-12-14T11:41:23;4.78;;;2.90;;
53907;SDS011;40469;47.998;7.794;2023-12-14T11:43:52;4.50;;;2.63;;
53907;SDS011;40469;47.998;7.794;2023-12-14T11:46:18;5.05;;;2.90;;
53907;SDS011;40469;47.998;7.794;2023-12-14T11:48:44;5.20;;;3.25;;
53907;SDS011;40469;47.998;7.794;2023-12-14T11:51:19;6.10;;;2.95;;
53907;SDS011;40469;47.998;7.794;2023-12-14T11:53:45;4.63;;;2.35;;
53907;SDS011;40469;47.998;7.794;2023-12-14T11:56:11;4.15;;;2.92;;
53907;SDS011;40469;47.998;7.794;2023-12-14T11:58:39;5.25;;;3.22;;
53907;SDS011;40469;47.998;7.794;2023-12-14T12:03:41;9.32;;;3.55;;
53907;SDS011;40469;47.998;7.794;2023-12-14T12:06:08;5.20;;;3.58;;
53907;SDS011;40469;47.998;7.794;2023-12-14T12:08:37;4.78;;;3.08;;
53907;SDS011;40469;47.998;7.794;2023-12-14T12:11:05;6.72;;;3.47;;
53907;SDS011;40469;47.998;7.794;2023-12-14T12:13:31;5.75;;;3.35;;
53907;SDS011;40469;47.998;7.794;2023-12-14T12:15:59;4.40;;;2.80;;
53907;SDS011;40469;47.998;7.794;2023-12-14T12:18:24;6.68;;;3.22;;
53907;SDS011;40469;47.998;7.794;2023-12-14T12:20:51;5.38;;;3.22;;
53907;SDS011;40469;47.998;7.794;2023-12-14T12:23:18;5.38;;;3.08;;
53907;SDS011;40469;47.998;7.794;2023-12-14T12:25:43;7.00;;;3.55;;
53907;SDS011;40469;47.998;7.794;2023-12-14T12:28:09;5.90;;;3.30;;
53907;SDS011;40469;47.998;7.794;2023-12-14T12:30:35;6.85;;;3.33;;
53907;SDS011;40469;47.998;7.794;2023-12-14T12:33:00;5.40;;;2.78;;
53907;SDS011;40469;47.998;7.794;2023-12-14T12:35:26;4.97;;;2.97;;
53907;SDS011;40469;47.998;7.794;2023-12-14T12:37:51;4.85;;;3.05;;
53907;SDS011;40469;47.998;7.794;2023-12-14T12:40:22;5.95;;;3.17;;
53907;SDS011;40469;47.998;7.794;2023-12-14T12:42:50;4.05;;;2.72;;
53907;SDS011;40469;47.998;7.794;2023-12-14T12:45:16;4.55;;;3.05;;
53907;SDS011;40469;47.998;7.794;2023-12-14T12:47:51;5.60;;;3.05;;
53907;SDS011;40469;47.998;7.794;2023-12-14T12:50:16;4.95;;;2.58;;
53907;SDS011;40469;47.998;7.794;2023-12-14T12:52:41;5.10;;;2.70;;
53907;SDS011;40469;47.998;7.794;2023-12-14T12:55:07;4.20;;;2.90;;
53907;SDS011;40469;47.998;7.794;2023-12-14T12:57:35;4.93;;;3.13;;
53907;SDS011;40469;47.998;7.794;2023-12-14T13:00:01;5.07;;;3.10;;
53907;SDS011;40469;47.998;7.794;2023-12-14T13:02:26;4.97;;;3.10;;
53907;SDS011;40469;47.998;7.794;2023-12-14T13:04:51;15.40;;;4.65;;
53907;SDS011;40469;47.998;7.794;2023-12-14T13:07:18;5.38;;;2.70;;
53907;SDS011;40469;47.998;7.794;2023-12-14T13:09:43;4.97;;;2.72;;
53907;SDS011;40469;47.998;7.794;2023-12-14T13:12:09;5.28;;;2.53;;
53907;SDS011;40469;47.998;7.794;2023-12-14T13:14:35;4.75;;;2.47;;
53907;SDS011;40469;47.998;7.794;2023-12-14T13:17:00;4.43;;;2.28;;
53907;SDS011;40469;47.998;7.794;2023-12-14T13:19:26;4.35;;;2.95;;
53907;SDS011;40469;47.998;7.794;2023-12-14T13:21:51;4.28;;;2.58;;
53907;SDS011;40469;47.998;7.794;2023-12-14T13:24:17;3.97;;;2.50;;
53907;SDS011;40469;47.998;7.794;2023-12-14T13:26:43;5.07;;;3.17;;
53907;SDS011;40469;47.998;7.794;2023-12-14T13:29:08;6.45;;;3.42;;
53907;SDS011;40469;47.998;7.794;2023-12-14T13:31:33;4.80;;;2.92;;
53907;SDS011;40469;47.998;7.794;2023-12-14T13:33:59;3.55;;;2.67;;
53907;SDS011;40469;47.998;7.794;2023-12-14T13:36:24;4.38;;;2.50;;
53907;SDS011;40469;47.998;7.794;2023-12-14T13:38:49;3.20;;;2.20;;
53907;SDS011;40469;47.998;7.794;2023-12-14T13:41:15;4.10;;;2.42;;
53907;SDS011;40469;47.998;7.794;2023-12-14T13:43:40;3.50;;;2.33;;
53907;SDS011;40469;47.998;7.794;2023-12-14T13:46:05;5.13;;;2.60;;
53907;SDS011;40469;47.998;7.794;2023-12-14T13:48:31;4.22;;;1.90;;
53907;SDS011;40469;47.998;7.794;2023-12-14T13:50:56;2.53;;;1.63;;
53907;SDS011;40469;47.998;7.794;2023-12-14T13:53:22;3.58;;;2.17;;
53907;SDS011;40469;47.998;7.794;2023-12-14T13:55:48;3.33;;;2.00;;
53907;SDS011;40469;47.998;7.794;2023-12-14T13:58:16;3.28;;;2.10;;
53907;SDS011;40469;47.998;7.794;2023-12-14T14:00:42;2.03;;;1.50;;
53907;SDS011;40469;47.998;7.794;2023-12-14T14:03:08;4.63;;;2.63;;
53907;SDS011;40469;47.998;7.794;2023-12-14T14:05:34;3.75;;;2.10;;
53907;SDS011;40469;47.998;7.794;2023-12-14T14:07:59;3.75;;;2.10;;
53907;SDS011;40469;47.998;7.794;2023-12-14T14:10:25;3.05;;;1.98;;
53907;SDS011;40469;47.998;7.794;2023-12-14T14:12:50;4.90;;;2.30;;
53907;SDS011;40469;47.998;7.794;2023-12-14T14:15:16;3.00;;;2.03;;
53907;SDS011;40469;47.998;7.794;2023-12-14T14:17:42;3.17;;;2.50;;
53907;SDS011;40469;47.998;7.794;2023-12-14T14:20:07;3.13;;;2.15;;
53907;SDS011;40469;47.998;7.794;2023-12-14T14:22:34;3.47;;;2.28;;
53907;SDS011;40469;47.998;7.794;2023-12-14T14:25:03;5.72;;;4.00;;
53907;SDS011;40469;47.998;7.794;2023-12-14T14:27:31;3.00;;;1.83;;
53907;SDS011;40469;47.998;7.794;2023-12-14T14:29:56;5.22;;;2.20;;
53907;SDS011;40469;47.998;7.794;2023-12-14T14:32:21;2.63;;;1.67;;
53907;SDS011;40469;47.998;7.794;2023-12-14T14:34:47;2.88;;;1.60;;
53907;SDS011;40469;47.998;7.794;2023-12-14T14:37:12;4.55;;;2.03;;
53907;SDS011;40469;47.998;7.794;2023-12-14T14:39:37;2.45;;;1.70;;
53907;SDS011;40469;47.998;7.794;2023-12-14T14:42:04;2.90;;;1.83;;
53907;SDS011;40469;47.998;7.794;2023-12-14T14:44:30;4.55;;;1.90;;
53907;SDS011;40469;47.998;7.794;2023-12-14T14:46:56;3.20;;;1.85;;